Time;durP1;ratioP1;P1;durP2;ratioP2;P2;SDS_P1;SDS_P2;PMS_P1;PMS_P2;Temp;Humidity;BMP_temperature;BMP_pressure;BME280_temperature;BME280_humidity;BME280_pressure;Samples;Min_cycle;Max_cycle;Signal;HPM_P1;HPM_P2
2021/12/24 00:01:52;;;;;;;117.65;32.60;;;5.50;99.90;;;;;;5036215;28;20067;-69
2021/12/24 00:04:18;;;;;;;135.07;35.55;;;5.50;99.90;;;;;;5035728;28;20445;-69
2021/12/24 00:06:44;;;;;;;115.38;33.53;;;5.60;99.90;;;;;;5019018;28;20060;-69
2021/12/24 00:09:20;;;;;;;131.35;34.97;;;5.60;99.90;;;;;;5035894;28;20079;-69
2021/12/24 00:11:45;;;;;;;141.55;35.75;;;5.70;99.90;;;;;;5036115;28;20049;-71
2021/12/24 00:14:11;;;;;;;136.55;35.33;;;5.70;99.90;;;;;;5019494;28;20058;-72
2021/12/24 00:16:42;;;;;;;129.48;35.40;;;5.70;99.90;;;;;;5015901;28;20130;-69
2021/12/24 00:19:34;;;;;;;139.63;33.85;;;5.80;99.90;;;;;;5017674;28;20086;-71
2021/12/24 00:35:35;;;;;;;94.72;28.48;;;5.90;99.90;;;;;;5035601;28;20175;-69
2021/12/24 00:38:06;;;;;;;91.75;28.23;;;5.90;99.90;;;;;;5034439;28;20045;-70
2021/12/24 00:40:44;;;;;;;90.63;28.08;;;6.00;99.90;;;;;;5035298;28;20063;-71
2021/12/24 00:43:11;;;;;;;80.45;27.38;;;6.00;99.90;;;;;;5035486;28;20045;-70
2021/12/24 00:45:40;;;;;;;90.10;26.52;;;6.00;99.90;;;;;;5034889;28;20064;-70
2021/12/24 00:48:07;;;;;;;72.85;26.10;;;6.00;99.90;;;;;;5052729;28;20366;-70
2021/12/24 00:50:49;;;;;;;80.13;25.50;;;6.00;99.90;;;;;;5035619;28;20083;-70
2021/12/24 00:56:05;;;;;;;58.78;21.38;;;6.10;99.90;;;;;;5033039;28;20045;-68
2021/12/24 00:58:31;;;;;;;65.43;22.45;;;6.10;99.90;;;;;;5040807;28;20056;-69
2021/12/24 01:00:58;;;;;;;70.97;23.40;;;6.10;99.90;;;;;;5034029;28;20047;-71
2021/12/24 01:03:24;;;;;;;51.75;20.02;;;6.10;99.90;;;;;;5052027;28;20063;-70
2021/12/24 01:05:49;;;;;;;51.25;20.10;;;6.20;99.90;;;;;;5034962;28;20128;-70
2021/12/24 01:08:15;;;;;;;49.55;21.00;;;6.20;99.90;;;;;;5034719;28;20487;-71
2021/12/24 01:10:42;;;;;;;51.33;18.95;;;6.30;99.90;;;;;;5035283;28;20053;-71
2021/12/24 01:13:08;;;;;;;44.95;18.23;;;6.30;99.90;;;;;;5034933;28;20049;-70
2021/12/24 01:15:37;;;;;;;50.15;18.77;;;6.30;99.90;;;;;;5034694;28;20045;-69
2021/12/24 01:20:45;;;;;;;40.25;16.38;;;6.40;99.90;;;;;;5035385;28;20053;-70
2021/12/24 01:23:29;;;;;;;44.55;17.80;;;6.40;99.90;;;;;;5022601;28;20557;-69
2021/12/24 01:26:20;;;;;;;44.55;17.05;;;6.50;99.90;;;;;;5015035;28;20489;-71
2021/12/24 01:29:05;;;;;;;42.38;16.48;;;6.40;99.90;;;;;;5022649;28;20107;-70
2021/12/24 01:44:56;;;;;;;40.88;15.70;;;6.60;99.90;;;;;;5034879;28;20045;-71
2021/12/24 01:47:22;;;;;;;40.45;15.43;;;6.70;99.90;;;;;;5033417;28;20052;-71
2021/12/24 01:49:48;;;;;;;40.63;17.02;;;6.70;99.90;;;;;;5034732;28;20091;-72
2021/12/24 01:52:15;;;;;;;35.38;15.38;;;6.70;99.90;;;;;;5034519;28;20534;-69
2021/12/24 01:54:42;;;;;;;33.75;15.02;;;6.70;99.90;;;;;;5034904;28;20381;-72
2021/12/24 01:57:10;;;;;;;27.27;12.63;;;6.80;99.90;;;;;;5034323;28;20551;-69
2021/12/24 01:59:36;;;;;;;30.45;14.10;;;6.80;99.90;;;;;;5034485;28;20131;-70
2021/12/24 02:02:01;;;;;;;32.38;13.80;;;6.70;99.90;;;;;;5033863;28;20132;-70
2021/12/24 02:04:28;;;;;;;28.92;13.55;;;6.80;99.90;;;;;;5034289;28;20052;-72
2021/12/24 02:06:54;;;;;;;30.10;13.20;;;6.80;99.90;;;;;;5031640;28;20053;-70
2021/12/24 02:09:19;;;;;;;26.80;12.77;;;6.80;99.90;;;;;;5017872;28;20045;-68
2021/12/24 02:11:45;;;;;;;29.65;12.60;;;6.80;99.90;;;;;;5033723;28;20099;-70
2021/12/24 02:14:21;;;;;;;24.23;11.93;;;6.90;99.90;;;;;;5034900;28;20465;-69
2021/12/24 02:29:55;;;;;;;24.75;11.68;;;7.00;99.90;;;;;;5034465;28;20423;-71
2021/12/24 02:32:21;;;;;;;25.90;11.45;;;7.00;99.90;;;;;;5055521;28;20141;-68
2021/12/24 02:34:47;;;;;;;27.00;11.23;;;7.10;99.90;;;;;;5038178;28;20131;-70
2021/12/24 02:37:13;;;;;;;18.00;9.98;;;7.10;99.90;;;;;;5035844;28;20377;-69
2021/12/24 02:39:39;;;;;;;20.83;10.98;;;7.10;99.90;;;;;;5036906;28;20076;-71
2021/12/24 02:42:17;;;;;;;22.00;11.00;;;7.10;99.90;;;;;;5036665;28;20122;-70
2021/12/24 02:44:45;;;;;;;23.40;10.68;;;7.20;99.90;;;;;;5037152;28;20121;-71
2021/12/24 02:47:36;;;;;;;23.30;11.77;;;7.20;99.90;;;;;;5037394;28;20060;-69
2021/12/24 02:55:15;;;;;;;24.77;11.48;;;7.30;99.90;;;;;;5037921;28;20061;-70
2021/12/24 02:57:41;;;;;;;23.83;11.23;;;7.30;99.90;;;;;;5036574;28;20481;-69
2021/12/24 03:00:15;;;;;;;25.35;11.68;;;7.40;99.90;;;;;;5033854;28;20045;-70
2021/12/24 03:02:46;;;;;;;28.30;11.40;;;7.40;99.90;;;;;;5037072;28;20056;-69
2021/12/24 03:05:13;;;;;;;31.35;12.52;;;7.40;99.90;;;;;;5037162;28;20166;-70
2021/12/24 03:07:40;;;;;;;32.78;12.65;;;7.50;99.90;;;;;;5036495;28;20045;-72
2021/12/24 03:10:12;;;;;;;28.65;12.02;;;7.40;99.90;;;;;;5037155;28;20087;-70
2021/12/24 03:12:38;;;;;;;26.60;12.20;;;7.50;99.90;;;;;;5037339;28;20052;-69
2021/12/24 03:15:06;;;;;;;35.17;12.60;;;7.50;99.90;;;;;;5037698;28;20142;-71
2021/12/24 03:17:32;;;;;;;27.73;12.48;;;7.50;99.90;;;;;;5036370;28;20060;-71
2021/12/24 03:20:04;;;;;;;27.83;12.02;;;7.60;99.90;;;;;;5036504;28;20072;-72
2021/12/24 03:22:51;;;;;;;32.83;12.98;;;7.60;99.90;;;;;;5032294;28;20064;-68
2021/12/24 03:25:17;;;;;;;32.30;12.02;;;7.70;99.90;;;;;;5037812;28;20063;-69
2021/12/24 03:27:43;;;;;;;31.05;10.90;;;7.80;99.90;;;;;;5036213;28;20496;-72
2021/12/24 03:30:10;;;;;;;35.35;10.70;;;7.80;99.90;;;;;;5037262;28;20064;-70
2021/12/24 03:32:36;;;;;;;38.40;12.38;;;7.90;99.90;;;;;;5036419;28;20053;-70
2021/12/24 03:35:04;;;;;;;30.65;12.25;;;7.90;99.90;;;;;;5036943;28;20500;-71
2021/12/24 03:37:29;;;;;;;29.95;11.73;;;8.00;99.90;;;;;;5034054;28;20059;-71
2021/12/24 03:39:55;;;;;;;31.75;11.68;;;8.00;99.90;;;;;;5034549;28;20128;-70
2021/12/24 03:42:21;;;;;;;30.52;11.32;;;8.10;99.90;;;;;;5036899;28;20128;-68
2021/12/24 03:44:54;;;;;;;29.83;10.98;;;8.10;99.90;;;;;;5036548;28;20133;-71
2021/12/24 03:47:21;;;;;;;25.15;10.40;;;8.10;99.90;;;;;;5035796;28;20037;-70
2021/12/24 03:54:59;;;;;;;25.20;9.85;;;8.20;99.90;;;;;;5036623;28;20152;-70
2021/12/24 03:57:29;;;;;;;;;;;8.20;99.90;;;;;;5036049;28;20049;-71
2021/12/24 03:59:59;;;;;;;24.75;9.88;;;8.20;99.90;;;;;;5036628;28;20000;-70
2021/12/24 04:02:25;;;;;;;24.20;10.50;;;8.20;99.90;;;;;;5035854;28;20053;-69
2021/12/24 04:04:50;;;;;;;27.15;10.93;;;8.20;99.90;;;;;;5036415;28;20061;-71
2021/12/24 04:07:16;;;;;;;31.10;12.70;;;8.30;99.90;;;;;;5035276;28;20137;-72
2021/12/24 04:09:50;;;;;;;27.98;12.35;;;8.30;99.90;;;;;;5036201;28;20049;-69
2021/12/24 04:12:16;;;;;;;31.40;12.88;;;8.20;99.90;;;;;;5035900;28;20128;-69
2021/12/24 04:14:42;;;;;;;35.08;14.82;;;8.30;99.90;;;;;;5036178;28;20056;-70
2021/12/24 04:17:08;;;;;;;39.13;14.93;;;8.30;99.90;;;;;;5035468;28;20056;-70
2021/12/24 04:24:51;;;;;;;39.50;15.15;;;8.30;99.90;;;;;;5035508;28;20068;-71
2021/12/24 04:25:07;;;;;;;38.35;16.13;;;8.30;99.90;;;;;;5035650;28;20049;-70
2021/12/24 04:27:32;;;;;;;40.38;17.20;;;8.30;99.90;;;;;;5018507;28;20485;-71
2021/12/24 04:30:09;;;;;;;42.35;15.60;;;8.30;99.90;;;;;;5053641;28;20041;-69
2021/12/24 04:32:51;;;;;;;40.47;16.98;;;8.40;99.90;;;;;;5035103;28;20068;-70
2021/12/24 04:35:37;;;;;;;44.55;16.98;;;8.40;99.90;;;;;;5035921;28;20114;-69
2021/12/24 04:51:32;;;;;;;38.97;15.32;;;8.40;99.90;;;;;;5034222;28;20045;-70
2021/12/24 05:02:16;;;;;;;44.38;20.02;;;8.40;99.90;;;;;;5034616;28;20488;-70
2021/12/24 05:04:53;;;;;;;55.35;20.88;;;8.40;99.90;;;;;;5017726;28;20041;-69
2021/12/24 05:10:04;;;;;;;48.38;19.42;;;8.40;99.90;;;;;;5034865;28;20064;-71
2021/12/24 05:12:34;;;;;;;43.13;18.05;;;8.40;99.90;;;;;;5035204;28;20168;-73
2021/12/24 05:15:00;;;;;;;41.53;17.13;;;8.40;99.90;;;;;;5034896;28;20060;-71
2021/12/24 05:17:34;;;;;;;42.42;18.08;;;8.40;99.90;;;;;;5034624;28;20060;-70
2021/12/24 05:22:44;;;;;;;47.45;18.40;;;8.30;99.90;;;;;;5015081;28;20053;-70
2021/12/24 05:25:09;;;;;;;40.20;17.52;;;8.40;99.90;;;;;;5030652;28;20132;-70
2021/12/24 05:27:36;;;;;;;38.90;17.05;;;8.40;99.90;;;;;;5022420;28;20056;-70
2021/12/24 05:30:03;;;;;;;37.55;16.13;;;8.40;99.90;;;;;;5035160;28;20082;-71
2021/12/24 05:32:29;;;;;;;35.20;17.88;;;8.40;99.90;;;;;;5034160;28;20400;-68
2021/12/24 05:34:54;;;;;;;45.75;18.88;;;8.30;99.90;;;;;;5052297;28;20120;-69
2021/12/24 05:37:20;;;;;;;44.38;17.83;;;8.40;99.90;;;;;;5034501;28;20120;-71
2021/12/24 05:39:46;;;;;;;49.75;20.20;;;8.40;99.90;;;;;;5034354;28;20089;-71
2021/12/24 05:42:11;;;;;;;43.22;18.83;;;8.30;99.90;;;;;;5035037;28;20057;-73
2021/12/24 05:44:37;;;;;;;49.00;18.58;;;8.40;99.90;;;;;;5050812;28;20092;-71
2021/12/24 05:47:03;;;;;;;50.00;18.50;;;8.40;99.90;;;;;;5034428;28;20057;-71
2021/12/24 05:49:28;;;;;;;42.72;17.42;;;8.40;99.90;;;;;;5034486;28;20401;-71
2021/12/24 05:51:54;;;;;;;44.22;18.45;;;8.30;99.90;;;;;;5018503;28;20049;-70
2021/12/24 05:54:20;;;;;;;46.00;18.70;;;8.40;99.90;;;;;;5018009;28;20049;-71
2021/12/24 05:56:46;;;;;;;41.58;16.63;;;8.40;99.90;;;;;;5052752;28;20060;-71
2021/12/24 05:59:12;;;;;;;55.97;19.13;;;8.40;99.90;;;;;;5034261;28;20522;-72
2021/12/24 06:01:38;;;;;;;43.33;18.13;;;8.40;99.90;;;;;;5050874;28;20115;-71
2021/12/24 06:04:04;;;;;;;37.63;16.23;;;8.40;99.90;;;;;;5036062;28;20060;-69
2021/12/24 06:06:30;;;;;;;36.33;14.27;;;8.40;99.90;;;;;;5022079;28;20524;-70
2021/12/24 06:08:56;;;;;;;35.78;15.93;;;8.40;99.90;;;;;;5038483;28;20137;-69
2021/12/24 06:11:22;;;;;;;43.15;15.23;;;8.40;99.90;;;;;;5038144;28;20394;-70
2021/12/24 06:13:52;;;;;;;29.92;14.80;;;8.40;99.90;;;;;;5037940;28;20096;-71
2021/12/24 06:16:18;;;;;;;31.45;14.13;;;8.40;99.90;;;;;;5038164;28;20087;-69
2021/12/24 06:18:44;;;;;;;31.02;12.18;;;8.40;99.90;;;;;;5005460;28;20049;-71
2021/12/24 06:21:09;;;;;;;30.10;12.77;;;8.40;99.90;;;;;;5021448;28;20056;-70
2021/12/24 06:23:37;;;;;;;30.33;12.68;;;8.40;99.90;;;;;;5038315;28;20041;-71
2021/12/24 06:26:05;;;;;;;34.78;12.95;;;8.40;99.90;;;;;;5037790;28;20079;-69
2021/12/24 06:28:31;;;;;;;26.80;12.48;;;8.40;99.90;;;;;;5038490;28;20139;-69
2021/12/24 06:30:57;;;;;;;34.55;12.65;;;8.40;99.90;;;;;;5055526;28;20132;-69
2021/12/24 06:33:23;;;;;;;30.85;12.10;;;8.40;99.90;;;;;;5037941;28;20061;-70
2021/12/24 06:35:50;;;;;;;29.98;12.55;;;8.30;99.90;;;;;;5037158;28;20060;-70
2021/12/24 06:38:16;;;;;;;28.17;10.45;;;8.30;99.90;;;;;;5053077;28;20052;-69
2021/12/24 06:40:42;;;;;;;27.88;12.40;;;8.40;99.90;;;;;;5038014;28;20045;-68
2021/12/24 06:43:08;;;;;;;28.55;12.30;;;8.40;99.90;;;;;;5035622;28;20057;-70
2021/12/24 06:45:34;;;;;;;30.83;12.27;;;8.30;99.90;;;;;;5051831;28;20132;-71
2021/12/24 06:48:01;;;;;;;25.63;11.88;;;8.30;99.90;;;;;;5036888;28;20048;-74
2021/12/24 06:50:27;;;;;;;25.83;11.40;;;8.40;99.90;;;;;;5033944;28;20055;-68
2021/12/24 06:52:53;;;;;;;28.48;12.07;;;8.40;99.90;;;;;;5037444;28;20124;-69
2021/12/24 06:55:19;;;;;;;28.60;10.65;;;8.30;99.90;;;;;;5034409;28;20057;-70
2021/12/24 06:57:45;;;;;;;27.13;11.65;;;8.40;99.90;;;;;;5040571;28;20047;-70
2021/12/24 07:00:16;;;;;;;25.65;10.77;;;8.30;99.90;;;;;;5023859;28;20591;-71
2021/12/24 07:02:41;;;;;;;25.17;9.48;;;8.30;99.90;;;;;;5024794;28;20056;-70
2021/12/24 07:05:07;;;;;;;26.83;10.63;;;8.30;99.90;;;;;;5035674;28;20053;-69
2021/12/24 07:07:33;;;;;;;25.30;9.30;;;8.30;99.90;;;;;;5037395;28;20048;-70
2021/12/24 07:09:59;;;;;;;23.52;9.40;;;8.30;99.90;;;;;;5053772;28;20049;-69
2021/12/24 07:12:26;;;;;;;25.15;9.45;;;8.30;99.90;;;;;;5035745;28;20044;-71
2021/12/24 07:14:52;;;;;;;22.52;9.88;;;8.30;99.90;;;;;;5036858;28;20045;-71
2021/12/24 07:17:18;;;;;;;22.67;8.90;;;8.30;99.90;;;;;;5036552;28;20522;-70
2021/12/24 07:19:43;;;;;;;21.38;8.43;;;8.30;99.90;;;;;;5036950;28;20056;-70
2021/12/24 07:22:09;;;;;;;19.13;8.63;;;8.20;99.90;;;;;;5036482;28;20052;-71
2021/12/24 07:24:36;;;;;;;26.00;7.45;;;8.30;99.90;;;;;;5035872;28;20045;-71
2021/12/24 07:27:02;;;;;;;22.50;9.10;;;8.30;99.90;;;;;;5036663;28;20053;-70
2021/12/24 07:29:29;;;;;;;19.45;8.95;;;8.30;99.90;;;;;;5035828;28;20501;-71
2021/12/24 07:31:55;;;;;;;24.45;8.00;;;8.30;99.90;;;;;;5036256;28;20041;-70
2021/12/24 07:34:20;;;;;;;20.83;7.55;;;8.20;99.90;;;;;;5036715;28;20041;-70
2021/12/24 07:36:46;;;;;;;22.27;8.48;;;8.20;99.90;;;;;;5031952;28;20178;-70
2021/12/24 07:39:12;;;;;;;25.98;8.20;;;8.20;99.90;;;;;;5031344;28;20055;-69
2021/12/24 07:41:38;;;;;;;28.33;8.57;;;8.20;99.90;;;;;;5034643;28;20060;-71
2021/12/24 07:44:04;;;;;;;21.08;7.97;;;8.20;99.90;;;;;;5051795;28;20060;-68
2021/12/24 07:46:40;;;;;;;19.25;7.60;;;8.30;99.90;;;;;;5035201;28;20401;-71
2021/12/24 07:49:18;;;;;;;21.77;7.85;;;8.20;99.90;;;;;;5036138;28;20056;-69
2021/12/24 07:52:08;;;;;;;17.27;7.50;;;8.20;99.90;;;;;;5005554;28;20120;-71
2021/12/24 07:54:43;;;;;;;20.83;7.32;;;8.20;99.90;;;;;;5004771;28;20045;-70
2021/12/24 07:57:11;;;;;;;16.60;6.13;;;8.20;99.90;;;;;;5052815;28;20103;-70
2021/12/24 07:59:39;;;;;;;19.45;6.70;;;8.20;99.90;;;;;;5036313;28;20045;-72
2021/12/24 08:02:10;;;;;;;20.33;7.07;;;8.20;99.90;;;;;;5035895;28;20124;-68
2021/12/24 08:04:37;;;;;;;14.65;6.70;;;8.20;99.90;;;;;;5035993;28;20053;-69
2021/12/24 08:07:03;;;;;;;15.20;5.88;;;8.20;99.90;;;;;;5030409;28;20119;-72
2021/12/24 08:09:29;;;;;;;21.20;5.78;;;8.20;99.90;;;;;;5035051;28;20498;-69
2021/12/24 08:11:55;;;;;;;13.63;6.15;;;8.20;99.90;;;;;;5054012;28;20053;-69
2021/12/24 08:14:20;;;;;;;15.50;5.18;;;8.30;99.90;;;;;;5036740;28;20053;-71
2021/12/24 08:16:46;;;;;;;15.70;5.60;;;8.20;99.90;;;;;;5042210;28;20045;-70
2021/12/24 08:19:13;;;;;;;15.50;5.43;;;8.20;99.90;;;;;;5035826;28;20111;-69
2021/12/24 08:21:39;;;;;;;15.55;5.55;;;;;;;;;;5017339;28;20057;-70
2021/12/24 08:24:05;;;;;;;14.02;5.25;;;8.30;99.90;;;;;;5023786;28;20534;-69
2021/12/24 08:26:32;;;;;;;19.88;5.38;;;8.30;99.90;;;;;;5018924;28;20090;-69
2021/12/24 08:28:58;;;;;;;17.60;5.18;;;8.30;99.90;;;;;;5052350;28;20060;-69
2021/12/24 08:31:23;;;;;;;18.40;5.28;;;8.30;99.90;;;;;;5053468;28;20135;-71
2021/12/24 08:33:49;;;;;;;16.10;5.45;;;8.30;99.90;;;;;;5035509;28;20049;-69
2021/12/24 08:36:15;;;;;;;16.52;5.25;;;8.30;99.90;;;;;;5035686;28;20057;-69
2021/12/24 08:38:40;;;;;;;21.08;5.65;;;8.30;99.90;;;;;;5029116;28;20095;-71
2021/12/24 08:41:06;;;;;;;20.50;6.43;;;8.30;99.90;;;;;;5033796;28;20049;-68
2021/12/24 08:43:33;;;;;;;20.42;5.55;;;;;;;;;;5015988;28;20069;-71
2021/12/24 08:45:59;;;;;;;20.15;6.82;;;8.30;99.90;;;;;;5015261;28;20049;-68
2021/12/24 08:48:25;;;;;;;20.42;6.97;;;8.30;99.90;;;;;;5015970;28;20065;-67
2021/12/24 08:50:51;;;;;;;27.33;6.68;;;8.30;99.90;;;;;;5015427;28;20057;-71
2021/12/24 08:53:17;;;;;;;17.45;5.53;;;8.30;99.90;;;;;;5004123;28;20045;-70
2021/12/24 08:55:42;;;;;;;23.15;6.18;;;8.40;99.90;;;;;;5053113;28;20055;-70
2021/12/24 08:58:08;;;;;;;20.73;5.68;;;8.30;99.90;;;;;;5018679;28;20481;-70
2021/12/24 09:00:35;;;;;;;24.45;6.22;;;8.40;99.90;;;;;;5018762;28;20068;-69
2021/12/24 09:03:02;;;;;;;18.95;5.60;;;8.40;99.90;;;;;;5034632;28;20566;-71
2021/12/24 09:05:28;;;;;;;22.90;5.97;;;8.40;99.90;;;;;;5035996;28;20468;-67
2021/12/24 09:07:54;;;;;;;20.90;5.38;;;8.40;99.90;;;;;;5033841;28;20060;-69
2021/12/24 09:10:19;;;;;;;20.38;5.90;;;8.40;99.90;;;;;;5035233;28;20052;-70
2021/12/24 09:12:45;;;;;;;17.17;5.03;;;8.40;99.90;;;;;;5053042;28;20049;-69
2021/12/24 09:15:13;;;;;;;16.50;5.15;;;8.40;99.90;;;;;;5034699;28;20052;-70
2021/12/24 09:17:44;;;;;;;19.90;5.13;;;8.40;99.90;;;;;;5030983;28;20493;-68
2021/12/24 09:20:14;;;;;;;19.00;5.28;;;8.60;99.90;;;;;;5050547;28;20045;-69
2021/12/24 09:22:40;;;;;;;18.95;5.07;;;8.40;99.90;;;;;;5039321;28;20072;-70
2021/12/24 09:25:07;;;;;;;19.38;4.80;;;8.40;99.90;;;;;;5034855;28;20049;-69
2021/12/24 09:27:33;;;;;;;15.80;5.00;;;8.40;99.90;;;;;;5034932;28;20067;-70
2021/12/24 09:29:59;;;;;;;18.80;4.93;;;8.40;99.90;;;;;;5034904;28;20494;-71
2021/12/24 09:32:28;;;;;;;22.60;5.90;;;8.40;99.90;;;;;;5053666;28;20094;-70
2021/12/24 09:34:54;;;;;;;21.10;4.90;;;8.40;99.90;;;;;;5031354;28;20108;-70
2021/12/24 09:37:19;;;;;;;20.70;5.40;;;8.40;99.90;;;;;;5032463;28;20045;-71
2021/12/24 09:39:45;;;;;;;18.85;5.25;;;8.40;99.90;;;;;;5038074;28;20136;-71
2021/12/24 09:42:10;;;;;;;12.68;4.97;;;8.40;99.90;;;;;;5022035;28;20107;-69
2021/12/24 09:44:36;;;;;;;14.15;4.95;;;8.50;99.90;;;;;;5055506;28;20049;-69
2021/12/24 09:47:02;;;;;;;17.65;5.47;;;8.50;99.90;;;;;;5038644;28;20045;-70
2021/12/24 09:49:27;;;;;;;19.33;5.60;;;8.50;99.90;;;;;;5038652;28;20061;-71
2021/12/24 09:51:53;;;;;;;18.27;5.82;;;8.50;99.90;;;;;;5039047;28;20466;-70
2021/12/24 09:54:24;;;;;;;17.05;5.35;;;8.50;99.90;;;;;;5039193;28;20049;-71
2021/12/24 09:56:52;;;;;;;15.73;5.28;;;8.50;99.90;;;;;;5038699;28;20500;-70
2021/12/24 09:59:19;;;;;;;19.67;6.32;;;;;;;;;;5036202;28;20052;-71
2021/12/24 10:01:57;;;;;;;23.70;6.32;;;8.50;99.90;;;;;;5033110;28;20103;-71
2021/12/24 10:04:26;;;;;;;21.23;5.70;;;8.50;99.90;;;;;;5018452;28;20053;-69
2021/12/24 10:06:54;;;;;;;18.95;5.75;;;8.50;99.90;;;;;;5018736;28;20058;-71
2021/12/24 10:09:27;;;;;;;24.05;5.72;;;8.50;99.90;;;;;;5019070;28;20469;-71
2021/12/24 10:12:00;;;;;;;16.67;5.30;;;8.50;99.90;;;;;;5036920;28;20489;-72
2021/12/24 10:14:37;;;;;;;16.90;5.70;;;8.60;99.90;;;;;;5055055;28;20052;-71
2021/12/24 10:17:22;;;;;;;18.05;5.85;;;8.60;99.90;;;;;;5029442;28;20045;-70
2021/12/24 10:19:54;;;;;;;14.55;5.20;;;8.60;99.90;;;;;;5036365;28;20054;-69
2021/12/24 10:22:21;;;;;;;20.17;5.43;;;8.60;99.90;;;;;;5018593;28;20456;-70
2021/12/24 10:25:01;;;;;;;18.58;5.95;;;8.60;99.90;;;;;;5002432;28;20393;-69
2021/12/24 10:27:32;;;;;;;19.27;7.07;;;8.60;99.90;;;;;;5018106;28;20054;-71
2021/12/24 10:29:59;;;;;;;22.13;6.13;;;8.60;99.90;;;;;;5019009;28;20164;-70
2021/12/24 10:32:26;;;;;;;20.55;5.57;;;8.60;99.90;;;;;;5018071;28;20132;-72
2021/12/24 10:34:52;;;;;;;23.05;6.90;;;8.60;99.90;;;;;;5018335;28;20145;-68
2021/12/24 10:37:22;;;;;;;24.05;6.82;;;8.60;99.90;;;;;;5008058;28;20049;-69
2021/12/24 10:39:55;;;;;;;24.00;6.05;;;8.60;99.90;;;;;;5022441;28;20530;-70
2021/12/24 10:42:23;;;;;;;20.23;5.82;;;8.60;99.90;;;;;;5018294;28;20053;-72
2021/12/24 10:44:50;;;;;;;18.95;6.35;;;8.60;99.90;;;;;;5017750;28;20049;-71
2021/12/24 10:47:27;;;;;;;19.65;6.57;;;8.60;99.90;;;;;;5017050;28;20045;-71
2021/12/24 10:50:50;;;;;;;21.13;6.68;;;8.50;99.90;;;;;;5017756;28;20057;-74
2021/12/24 10:55:19;;;;;;;11.40;5.85;;;8.50;99.90;;;;;;5018033;28;20522;-70
2021/12/24 10:57:48;;;;;;;18.38;6.40;;;8.50;99.90;;;;;;5016934;28;20052;-73
2021/12/24 11:00:16;;;;;;;16.92;6.47;;;8.50;99.90;;;;;;5015706;28;20103;-71
2021/12/24 11:02:42;;;;;;;23.58;6.05;;;8.50;99.90;;;;;;5017454;28;20103;-72
2021/12/24 11:05:25;;;;;;;20.83;7.18;;;8.50;99.90;;;;;;5017150;28;20485;-71
2021/12/24 11:07:51;;;;;;;16.90;6.15;;;8.50;99.90;;;;;;5015944;28;20124;-69
2021/12/24 11:10:21;;;;;;;12.98;4.55;;;8.50;99.90;;;;;;5017146;28;20052;-71
2021/12/24 11:13:15;;;;;;;15.88;5.00;;;8.50;99.90;;;;;;5016765;28;20100;-74
2021/12/24 11:15:40;;;;;;;12.32;4.30;;;8.50;99.90;;;;;;5011446;28;20092;-70
2021/12/24 11:18:19;;;;;;;9.48;3.35;;;8.50;99.90;;;;;;5011864;28;20093;-70
2021/12/24 11:20:49;;;;;;;11.82;3.80;;;8.20;99.90;;;;;;5016661;28;20092;-70
2021/12/24 11:23:16;;;;;;;7.40;3.22;;;8.40;99.90;;;;;;5017426;28;20045;-70
2021/12/24 11:25:45;;;;;;;8.48;3.38;;;8.40;99.90;;;;;;5016330;28;20110;-70
2021/12/24 11:28:13;;;;;;;7.63;3.17;;;8.40;99.90;;;;;;5016961;28;20041;-71
2021/12/24 11:30:43;;;;;;;10.43;3.50;;;8.40;99.90;;;;;;5016476;28;20159;-70
2021/12/24 11:33:13;;;;;;;5.30;2.40;;;8.30;99.90;;;;;;5017479;28;20136;-70
2021/12/24 11:35:39;;;;;;;1.98;1.55;;;8.30;99.90;;;;;;5016726;28;20057;-72
2021/12/24 11:38:06;;;;;;;2.58;1.27;;;7.70;99.90;;;;;;5017202;28;20045;-69
2021/12/24 11:40:31;;;;;;;1.98;1.35;;;7.90;99.90;;;;;;5035864;28;20072;-69
2021/12/24 11:43:03;;;;;;;1.67;1.58;;;7.70;99.90;;;;;;5048310;28;20140;-70
2021/12/24 11:45:30;;;;;;;1.73;1.63;;;7.70;99.90;;;;;;5018857;28;20052;-69
2021/12/24 11:47:56;;;;;;;1.40;1.30;;;7.40;99.90;;;;;;5035756;28;20049;-69
2021/12/24 11:50:23;;;;;;;2.75;1.65;;;7.30;99.90;;;;;;5028115;28;20052;-70
2021/12/24 11:52:52;;;;;;;1.38;1.27;;;7.20;99.90;;;;;;5017856;28;20057;-68
2021/12/24 11:55:19;;;;;;;1.70;1.60;;;7.00;99.90;;;;;;5034800;28;20057;-69
2021/12/24 11:57:51;;;;;;;1.48;1.38;;;7.10;99.90;;;;;;5036500;28;20544;-70
2021/12/24 12:00:25;;;;;;;2.30;1.40;;;7.00;99.90;;;;;;5035768;28;20060;-68
2021/12/24 12:02:51;;;;;;;1.48;1.38;;;6.90;99.90;;;;;;5035550;28;20057;-70
2021/12/24 12:05:25;;;;;;;1.63;1.50;;;6.90;99.90;;;;;;5026876;28;20067;-68
2021/12/24 12:08:11;;;;;;;1.70;1.60;;;6.90;99.90;;;;;;5038579;28;20057;-71
2021/12/24 12:10:55;;;;;;;2.10;1.52;;;6.90;99.90;;;;;;5039810;28;20064;-69
2021/12/24 12:13:37;;;;;;;1.70;1.60;;;6.90;99.90;;;;;;5053695;28;20060;-71
2021/12/24 12:16:05;;;;;;;3.43;2.10;;;6.90;99.90;;;;;;5053412;28;20061;-69
2021/12/24 12:18:42;;;;;;;2.78;2.17;;;6.90;99.90;;;;;;5036304;28;20637;-70
2021/12/24 12:21:36;;;;;;;2.42;1.92;;;6.90;99.90;;;;;;5036077;28;20496;-69
2021/12/24 12:26:41;;;;;;;2.22;2.03;;;6.90;99.90;;;;;;5036115;28;20056;-70
2021/12/24 12:29:26;;;;;;;1.50;1.40;;;6.90;99.90;;;;;;5035684;28;20060;-70
2021/12/24 12:32:03;;;;;;;0.90;0.90;;;6.90;99.90;;;;;;5035215;28;20052;-72
2021/12/24 12:34:43;;;;;;;1.20;1.10;;;6.90;99.90;;;;;;5053683;28;20124;-72
2021/12/24 12:37:18;;;;;;;1.25;1.15;;;6.90;99.90;;;;;;5034940;28;20057;-71
2021/12/24 12:39:46;;;;;;;1.30;1.08;;;6.90;99.90;;;;;;5052049;28;20088;-72
2021/12/24 12:42:15;;;;;;;1.70;1.42;;;6.90;99.90;;;;;;5035344;28;20049;-71
2021/12/24 12:44:46;;;;;;;1.30;1.20;;;6.90;99.90;;;;;;5035780;28;20477;-72
2021/12/24 12:47:15;;;;;;;1.52;1.30;;;6.90;99.90;;;;;;5035348;28;20052;-72
2021/12/24 12:49:40;;;;;;;1.50;1.40;;;6.90;99.90;;;;;;5035843;28;20059;-71
2021/12/24 12:52:12;;;;;;;1.38;1.27;;;6.90;99.90;;;;;;5035433;28;20041;-70
2021/12/24 12:54:47;;;;;;;1.52;1.42;;;6.90;99.90;;;;;;5035211;28;20114;-69
2021/12/24 12:57:19;;;;;;;1.35;1.25;;;6.90;99.90;;;;;;5035643;28;20118;-73
2021/12/24 13:00:06;;;;;;;1.80;1.70;;;6.90;99.90;;;;;;5035344;28;20045;-70
2021/12/24 13:02:57;;;;;;;2.30;2.10;;;6.90;99.90;;;;;;5034740;28;20445;-73
2021/12/24 13:05:30;;;;;;;2.08;1.63;;;6.80;99.90;;;;;;5034994;28;20060;-72
2021/12/24 13:08:08;;;;;;;1.83;1.73;;;6.80;99.90;;;;;;5034319;28;20149;-71
2021/12/24 13:10:34;;;;;;;2.13;1.92;;;6.80;99.90;;;;;;5035209;28;20095;-70
2021/12/24 13:13:00;;;;;;;2.28;2.05;;;6.80;99.90;;;;;;5035029;28;20403;-71
2021/12/24 13:15:26;;;;;;;2.80;2.40;;;6.80;99.90;;;;;;5035911;28;20374;-71
2021/12/24 13:17:51;;;;;;;2.38;2.17;;;6.80;99.90;;;;;;5034905;28;20060;-71
2021/12/24 13:20:33;;;;;;;2.78;2.17;;;6.70;99.90;;;;;;5027876;28;20557;-70
2021/12/24 13:23:02;;;;;;;2.83;2.63;;;6.70;99.90;;;;;;5015189;28;20091;-72
2021/12/24 13:25:27;;;;;;;2.25;2.05;;;6.70;99.90;;;;;;4998930;28;20049;-69
2021/12/24 13:27:54;;;;;;;2.60;2.40;;;6.70;99.90;;;;;;5015431;28;20528;-71
2021/12/24 13:30:25;;;;;;;2.40;2.20;;;6.70;99.90;;;;;;5035107;28;20120;-70
2021/12/24 13:32:54;;;;;;;2.50;2.30;;;6.70;99.90;;;;;;5034216;28;20055;-69
2021/12/24 13:35:23;;;;;;;2.70;2.50;;;6.70;99.90;;;;;;5034979;28;20064;-70
2021/12/24 13:37:50;;;;;;;3.75;2.50;;;6.70;99.90;;;;;;5034487;28;20045;-70
2021/12/24 13:40:20;;;;;;;2.60;2.40;;;6.70;99.90;;;;;;5052521;28;20049;-70
2021/12/24 13:42:54;;;;;;;3.72;2.60;;;6.70;99.90;;;;;;5034716;28;20052;-69
2021/12/24 13:45:21;;;;;;;3.15;2.85;;;6.70;99.90;;;;;;5018347;28;20178;-70
2021/12/24 13:48:07;;;;;;;3.45;2.90;;;6.70;99.90;;;;;;5034188;28;20049;-71
2021/12/24 13:56:15;;;;;;;2.13;2.00;;;6.60;99.90;;;;;;5034114;28;20049;-70
2021/12/24 13:58:48;;;;;;;2.55;2.35;;;6.60;99.90;;;;;;5033543;28;20448;-71
2021/12/24 14:01:13;;;;;;;2.33;2.08;;;6.60;99.90;;;;;;5023476;28;20048;-70
2021/12/24 14:03:39;;;;;;;2.88;2.35;;;6.50;99.90;;;;;;5030477;28;20046;-70
2021/12/24 14:06:05;;;;;;;2.50;2.30;;;6.50;99.90;;;;;;5030966;28;20058;-69
2021/12/24 14:08:34;;;;;;;2.50;2.22;;;6.50;99.90;;;;;;5033926;28;20493;-69
2021/12/24 14:11:15;;;;;;;2.22;2.03;;;6.50;99.90;;;;;;5033670;28;20481;-70
2021/12/24 14:13:51;;;;;;;2.67;2.28;;;6.50;99.90;;;;;;5034633;28;20485;-70
2021/12/24 14:19:05;;;;;;;2.50;1.95;;;6.50;99.90;;;;;;5030350;28;20053;-69
2021/12/24 14:24:14;;;;;;;3.13;2.40;;;6.50;99.90;;;;;;5014669;28;20532;-70
2021/12/24 14:26:51;;;;;;;2.70;2.50;;;6.50;99.90;;;;;;5001824;28;20061;-71
2021/12/24 14:29:30;;;;;;;2.42;2.22;;;6.50;99.90;;;;;;5036724;28;20049;-71
2021/12/24 14:32:03;;;;;;;2.40;2.20;;;6.50;99.90;;;;;;5037385;28;20057;-72
2021/12/24 14:34:37;;;;;;;3.22;2.50;;;6.60;99.90;;;;;;5038038;28;20049;-72
2021/12/24 14:37:28;;;;;;;4.13;2.83;;;6.60;99.90;;;;;;5037992;28;20517;-69
2021/12/24 14:40:16;;;;;;;3.15;2.85;;;6.50;99.90;;;;;;5037078;28;20052;-70